Time;durP1;ratioP1;P1;durP2;ratioP2;P2;SDS_P1;SDS_P2;PMS_P1;PMS_P2;Temp;Humidity;BMP_temperature;BMP_pressure;BME280_temperature;BME280_humidity;BME280_pressure;Samples;Min_cycle;Max_cycle;Signal;HPM_P1;HPM_P2
2024/01/16 00:00:59;;;;;;;13.70;7.57;;;;;;;-0.37;79.37;98888.98;1465605;88;21517;-77
2024/01/16 00:03:25;;;;;;;13.97;8.33;;;;;;;-0.43;80.27;98894.61;1475291;88;22548;-77
2024/01/16 00:05:51;;;;;;;14.33;8.57;;;;;;;-0.44;79.83;98898.98;1473577;88;21814;-77
2024/01/16 00:08:17;;;;;;;14.67;8.07;;;;;;;-0.49;80.05;98909.75;1468479;88;21577;-77
2024/01/16 00:10:43;;;;;;;11.23;7.20;;;;;;;-0.51;80.49;98922.02;1472292;88;21642;-76
2024/01/16 00:13:10;;;;;;;10.83;6.50;;;;;;;-0.54;80.24;98911.03;1458672;88;22610;-77
2024/01/16 00:15:36;;;;;;;14.17;8.03;;;;;;;-0.57;80.42;98912.08;1451675;89;21571;-77
2024/01/16 00:18:04;;;;;;;14.80;8.33;;;;;;;-0.59;80.43;98907.47;1462197;89;21487;-77
2024/01/16 00:20:31;;;;;;;15.43;8.33;;;;;;;-0.62;80.49;98902.50;1450808;89;21646;-76
2024/01/16 00:22:57;;;;;;;13.67;7.33;;;;;;;-0.66;80.66;98902.83;1446045;89;21679;-77
2024/01/16 00:25:23;;;;;;;14.33;8.47;;;;;;;-0.69;80.94;98910.41;1458140;89;22820;-77
2024/01/16 00:27:49;;;;;;;24.27;8.57;;;;;;;-0.73;80.72;98905.88;1453652;89;22526;-77
2024/01/16 00:30:16;;;;;;;15.27;7.73;;;;;;;-0.76;80.88;98906.59;1451136;89;21505;-76
2024/01/16 00:32:42;;;;;;;12.77;6.93;;;;;;;-0.77;81.21;98919.23;1461024;89;22508;-77
2024/01/16 00:35:09;;;;;;;13.72;7.62;;;;;;;-0.80;81.49;98922.05;1454906;89;22241;-77
2024/01/16 00:37:37;;;;;;;12.87;7.67;;;;;;;-0.83;81.90;98931.38;1457388;89;21557;-77
2024/01/16 00:40:05;;;;;;;14.77;7.67;;;;;;;-0.84;81.27;98937.48;1455273;89;21644;-77
2024/01/16 00:42:32;;;;;;;11.67;7.00;;;;;;;-0.86;81.80;98939.36;1449096;89;21834;-76
2024/01/16 00:44:58;;;;;;;15.27;8.43;;;;;;;-0.92;82.33;98940.19;1465898;89;21604;-77
2024/01/16 00:47:24;;;;;;;20.47;8.50;;;;;;;-0.91;81.85;98941.83;1450892;89;21716;-78
2024/01/16 00:49:50;;;;;;;15.43;8.37;;;;;;;-0.94;82.19;98951.14;1460161;89;21552;-77
2024/01/16 00:52:17;;;;;;;14.07;8.07;;;;;;;-0.96;82.04;98959.51;1445001;89;22106;-77
2024/01/16 00:54:43;;;;;;;11.30;7.63;;;;;;;-0.97;81.54;98957.86;1448503;89;22551;-77
2024/01/16 00:57:10;;;;;;;17.45;8.95;;;;;;;-0.97;81.58;98972.63;1456149;89;23628;-77
2024/01/16 00:59:37;;;;;;;16.77;9.13;;;;;;;-1.00;81.40;98981.94;1451694;89;21443;-77
2024/01/16 01:02:04;;;;;;;15.88;8.15;;;;;;;-1.04;81.84;98985.19;1459770;89;22299;-77
2024/01/16 01:04:32;;;;;;;16.70;8.80;;;;;;;-1.06;81.68;98983.20;1450045;89;21339;-77
2024/01/16 01:06:58;;;;;;;13.65;7.72;;;;;;;-1.10;82.28;98984.81;1439458;89;21465;-77
2024/01/16 01:09:24;;;;;;;14.58;8.33;;;;;;;-1.15;81.72;98980.78;1458145;89;21524;-78
2024/01/16 01:11:51;;;;;;;17.77;8.90;;;;;;;-1.19;82.75;98987.59;1456269;89;21340;-78
2024/01/16 01:14:17;;;;;;;21.12;9.58;;;;;;;-1.21;82.73;98984.27;1463694;88;21634;-76
2024/01/16 01:16:44;;;;;;;15.23;9.90;;;;;;;-1.24;82.31;98992.27;1467024;89;21946;-77
2024/01/16 01:19:10;;;;;;;16.87;8.43;;;;;;;-1.26;82.38;98990.27;1471524;89;21347;-77
2024/01/16 01:21:36;;;;;;;17.17;9.70;;;;;;;-1.29;82.44;98990.02;1466348;89;21528;-76
2024/01/16 01:24:03;;;;;;;16.93;8.70;;;;;;;-1.31;82.88;98988.46;1477149;89;22249;-77
2024/01/16 01:26:29;;;;;;;18.15;8.45;;;;;;;-1.34;83.20;98996.47;1464077;89;21325;-77
2024/01/16 01:28:57;;;;;;;14.23;7.75;;;;;;;-1.37;83.01;98996.20;1470370;88;22463;-77
2024/01/16 01:31:24;;;;;;;15.13;8.58;;;;;;;-1.41;83.69;98998.20;1434727;89;22368;-77
2024/01/16 01:33:50;;;;;;;14.47;9.23;;;;;;;-1.48;83.71;99003.43;1467646;89;21385;-77
2024/01/16 01:36:16;;;;;;;16.75;9.50;;;;;;;-1.52;84.04;98998.58;1467967;89;21455;-77
2024/01/16 01:38:43;;;;;;;14.90;8.00;;;;;;;-1.54;83.50;99006.45;1476984;89;21480;-77
2024/01/16 01:41:11;;;;;;;37.93;10.80;;;;;;;-1.57;83.66;99009.27;1469282;89;21428;-78
2024/01/16 01:43:37;;;;;;;14.85;8.65;;;;;;;-1.61;84.76;99010.42;1462471;89;21459;-77
2024/01/16 01:46:19;;;;;;;19.55;8.53;;;;;;;-1.63;83.97;99015.70;1453823;89;21599;-77
2024/01/16 01:48:48;;;;;;;17.23;9.55;;;;;;;-1.64;83.94;99022.27;1474590;88;22441;-77
2024/01/16 01:51:18;;;;;;;15.68;9.40;;;;;;;-1.66;84.42;99017.68;1464664;89;21237;-78
2024/01/16 01:53:47;;;;;;;20.85;9.85;;;;;;;-1.68;84.45;99020.84;1465199;88;21590;-77
2024/01/16 01:56:18;;;;;;;21.33;11.38;;;;;;;-1.69;84.43;99021.78;1461171;89;21385;-78
2024/01/16 01:58:47;;;;;;;18.50;9.93;;;;;;;-1.72;85.28;99024.59;1462899;89;21503;-77
2024/01/16 02:01:16;;;;;;;24.70;10.58;;;;;;;-1.75;85.20;99036.47;1462194;89;21465;-78
2024/01/16 02:03:47;;;;;;;16.82;9.15;;;;;;;-1.79;85.23;99039.71;1468257;89;21698;-77
2024/01/16 02:06:18;;;;;;;22.05;9.63;;;;;;;-1.83;85.26;99031.31;1469221;89;21281;-78
2024/01/16 02:08:44;;;;;;;12.10;7.25;;;;;;;-1.86;85.81;99033.30;1468128;89;22183;-77
2024/01/16 02:11:11;;;;;;;14.83;7.55;;;;;;;-1.90;85.57;99031.38;1469062;89;21333;-78
2024/01/16 02:13:37;;;;;;;13.43;7.83;;;;;;;-1.91;85.80;99036.66;1476701;88;22405;-78
2024/01/16 02:16:05;;;;;;;13.05;8.50;;;;;;;-1.92;85.59;99039.72;1473117;88;22463;-78
2024/01/16 02:18:32;;;;;;;14.63;7.58;;;;;;;-1.91;85.21;99045.26;1467702;88;21443;-79
2024/01/16 02:21:02;;;;;;;17.10;8.70;;;;;;;-1.92;85.31;99035.01;1470353;88;21399;-78
2024/01/16 02:23:29;;;;;;;17.90;9.83;;;;;;;-1.95;85.51;99042.52;1466022;88;22374;-78
2024/01/16 02:25:56;;;;;;;13.10;7.62;;;;;;;-1.95;85.36;99045.11;1476516;88;21310;-78
2024/01/16 02:28:22;;;;;;;13.68;7.83;;;;;;;-1.96;85.16;99057.69;1470326;88;21391;-77
2024/01/16 02:30:48;;;;;;;15.23;7.87;;;;;;;-1.98;85.38;99056.98;1461830;88;21517;-78
2024/01/16 02:33:14;;;;;;;20.57;8.80;;;;;;;-1.98;85.27;99059.58;1456435;88;21325;-78
2024/01/16 02:35:41;;;;;;;15.18;8.40;;;;;;;-1.98;85.41;99058.76;1467686;88;21399;-77
2024/01/16 02:38:07;;;;;;;19.73;9.93;;;;;;;-2.02;85.15;99062.00;1472814;88;21449;-78
2024/01/16 02:40:33;;;;;;;20.25;11.30;;;;;;;-2.08;85.42;99067.11;1465210;88;21535;-78
2024/01/16 02:43:00;;;;;;;17.85;9.75;;;;;;;-2.12;85.33;99072.15;1465630;88;21384;-78
2024/01/16 02:45:26;;;;;;;19.35;10.72;;;;;;;-2.16;85.55;99073.27;1472144;88;21532;-77
2024/01/16 02:47:53;;;;;;;19.95;10.25;;;;;;;-2.19;85.30;99079.95;1467709;88;22213;-78
2024/01/16 02:50:20;;;;;;;17.27;8.88;;;;;;;-2.22;85.55;99084.51;1476056;88;22375;-78
2024/01/16 02:52:46;;;;;;;18.25;8.80;;;;;;;-2.27;86.30;99086.94;1472829;88;21362;-78
2024/01/16 02:55:13;;;;;;;17.07;9.43;;;;;;;-2.29;86.94;99091.38;1453383;88;21355;-78
2024/01/16 02:57:39;;;;;;;19.62;9.50;;;;;;;-2.29;86.92;99100.45;1466737;88;21517;-78
2024/01/16 03:00:08;;;;;;;19.20;9.98;;;;;;;-2.32;88.67;99095.47;1462118;88;21435;-78
2024/01/16 03:02:34;;;;;;;21.17;10.00;;;;;;;-2.33;87.41;99097.71;1468309;88;21391;-78
2024/01/16 03:05:05;;;;;;;17.50;9.33;;;;;;;-2.35;87.50;99098.27;1455553;88;21517;-77
2024/01/16 03:07:31;;;;;;;17.65;9.48;;;;;;;-2.39;89.19;99099.84;1472950;88;21561;-77
2024/01/16 03:09:57;;;;;;;16.17;8.33;;;;;;;-2.42;89.06;99102.63;1468673;88;21317;-78
2024/01/16 03:12:23;;;;;;;16.37;9.68;;;;;;;-2.45;90.08;99107.54;1471620;88;22375;-77
2024/01/16 03:14:50;;;;;;;17.15;9.88;;;;;;;-2.47;90.07;99109.42;1468150;88;21413;-77
2024/01/16 03:17:17;;;;;;;16.55;9.53;;;;;;;-2.49;92.00;99111.27;1466803;89;21547;-78
2024/01/16 03:19:43;;;;;;;18.65;9.83;;;;;;;-2.53;95.42;99114.99;1473756;89;21376;-78
2024/01/16 03:22:09;;;;;;;16.82;8.88;;;;;;;-2.57;95.59;99114.80;1466217;89;21494;-78
2024/01/16 03:24:36;;;;;;;18.17;9.28;;;;;;;-2.59;96.54;99123.13;1468895;89;22422;-78
2024/01/16 03:27:04;;;;;;;15.85;8.98;;;;;;;-2.61;99.89;99119.82;1465314;89;21274;-78
2024/01/16 03:29:30;;;;;;;16.70;8.53;;;;;;;-2.61;100.00;99124.53;1465081;89;21360;-77
2024/01/16 03:31:56;;;;;;;13.10;8.15;;;;;;;-2.59;100.00;99132.19;1471430;89;21510;-78
2024/01/16 03:34:24;;;;;;;16.65;8.73;;;;;;;-2.59;100.00;99130.89;1467657;89;21399;-78
2024/01/16 03:36:50;;;;;;;12.82;7.55;;;;;;;-2.57;100.00;99141.53;1464173;89;22464;-77
2024/01/16 03:39:17;;;;;;;14.45;7.55;;;;;;;-2.56;100.00;99148.39;1463120;89;21436;-78
2024/01/16 03:41:43;;;;;;;13.32;7.25;;;;;;;-2.54;100.00;99150.88;1462330;89;21369;-78
2024/01/16 03:44:09;;;;;;;13.60;6.97;;;;;;;-2.51;99.39;99144.20;1471830;89;21458;-77
2024/01/16 03:46:35;;;;;;;20.40;10.20;;;;;;;-2.50;98.61;99145.89;1464540;89;21347;-78
2024/01/16 03:49:01;;;;;;;15.85;8.20;;;;;;;-2.47;98.29;99158.65;1469759;89;22375;-79
2024/01/16 03:51:28;;;;;;;13.32;7.95;;;;;;;-2.46;97.32;99151.23;1463417;89;21542;-78
2024/01/16 03:53:54;;;;;;;17.00;7.60;;;;;;;-2.47;96.79;99150.88;1465730;89;21348;-78
2024/01/16 03:56:20;;;;;;;15.15;8.15;;;;;;;-2.48;96.25;99154.37;1463533;89;21554;-78
2024/01/16 03:58:47;;;;;;;17.27;7.67;;;;;;;-2.49;95.70;99163.09;1469114;89;21325;-78
2024/01/16 04:01:13;;;;;;;18.57;9.38;;;;;;;-2.50;95.61;99158.84;1466066;89;21540;-77
2024/01/16 04:03:40;;;;;;;20.17;9.95;;;;;;;-2.50;95.35;99161.44;1469756;89;22477;-78
2024/01/16 04:06:18;;;;;;;20.57;9.03;;;;;;;-2.50;95.00;99169.20;1460661;89;22036;-78
2024/01/16 04:08:45;;;;;;;19.42;9.68;;;;;;;-2.52;94.64;99177.53;1464571;88;21480;-78
2024/01/16 04:11:15;;;;;;;15.75;7.83;;;;;;;-2.52;94.24;99171.05;1467331;89;21598;-77
2024/01/16 04:13:42;;;;;;;15.40;8.25;;;;;;;-2.51;94.05;99172.70;1471828;88;21392;-78
2024/01/16 04:16:08;;;;;;;23.07;10.82;;;;;;;-2.52;93.93;99177.53;1457823;89;21415;-78
2024/01/16 04:18:39;;;;;;;13.38;8.05;;;;;;;-2.55;93.83;99171.24;1462389;89;21490;-75
2024/01/16 04:21:06;;;;;;;21.05;7.87;;;;;;;-2.59;94.14;99168.45;1468497;89;22419;-78
2024/01/16 04:23:33;;;;;;;12.58;7.55;;;;;;;-2.63;94.30;99167.00;1471247;89;21369;-77
2024/01/16 04:25:59;;;;;;;12.78;6.83;;;;;;;-2.66;93.96;99173.20;1466887;89;21621;-77
2024/01/16 04:28:26;;;;;;;12.95;7.22;;;;;;;-2.69;94.02;99177.74;1467042;89;21362;-77
2024/01/16 04:30:52;;;;;;;11.70;7.50;;;;;;;-2.74;93.52;99187.91;1459719;89;21548;-77
2024/01/16 04:33:19;;;;;;;12.07;6.60;;;;;;;-2.78;93.44;99192.91;1465139;89;21518;-77
2024/01/16 04:35:45;;;;;;;13.18;7.17;;;;;;;-2.82;93.32;99194.47;1468758;89;21399;-77
2024/01/16 04:38:12;;;;;;;34.25;16.75;;;;;;;-2.87;97.47;99202.54;1475342;89;21355;-76
2024/01/16 04:40:38;;;;;;;40.85;18.02;;;;;;;-2.93;97.81;99210.68;1462691;89;21673;-78
2024/01/16 04:43:05;;;;;;;24.37;11.88;;;;;;;-2.98;99.16;99216.59;1467661;89;22205;-78
2024/01/16 04:45:31;;;;;;;21.00;11.05;;;;;;;-3.02;100.00;99214.65;1472111;89;21520;-77
2024/01/16 04:47:57;;;;;;;20.60;11.60;;;;;;;-3.04;100.00;99215.66;1458585;89;21524;-80
2024/01/16 04:50:31;;;;;;;19.77;11.48;;;;;;;-3.07;100.00;99215.84;1469149;89;21591;-79
2024/01/16 04:52:54;;;;;;;19.27;11.80;;;;;;;-3.08;99.32;99219.34;1468004;88;21509;-79
2024/01/16 04:55:19;;;;;;;15.40;7.83;;;;;;;-3.08;99.85;99227.11;1468693;89;21421;-79
2024/01/16 04:57:46;;;;;;;11.80;7.67;;;;;;;-3.07;99.15;99223.14;1465069;89;21369;-79
2024/01/16 05:00:13;;;;;;;14.90;6.62;;;;;;;-3.03;98.65;99230.27;1470771;89;22169;-79
2024/01/16 05:02:39;;;;;;;13.98;8.63;;;;;;;-3.00;98.85;99239.14;1473851;89;21390;-79
2024/01/16 05:05:06;;;;;;;10.65;7.40;;;;;;;-2.98;98.25;99247.66;1461121;89;21599;-79
2024/01/16 05:07:32;;;;;;;12.75;6.87;;;;;;;-2.95;98.38;99243.59;1466751;89;21598;-79
2024/01/16 05:09:58;;;;;;;13.22;7.58;;;;;;;-2.92;98.43;99245.99;1469321;89;21436;-79
2024/01/16 05:12:24;;;;;;;15.05;8.65;;;;;;;-2.89;97.85;99247.10;1474891;89;21569;-79
2024/01/16 05:14:51;;;;;;;16.12;8.35;;;;;;;-2.89;97.55;99250.98;1465131;88;22346;-79
2024/01/16 05:17:17;;;;;;;13.70;7.53;;;;;;;-2.87;97.29;99251.73;1466772;89;21554;-80
2024/01/16 05:19:43;;;;;;;14.07;7.03;;;;;;;-2.89;97.43;99251.45;1469562;89;21369;-79
2024/01/16 05:22:11;;;;;;;14.73;7.97;;;;;;;-2.88;97.01;99253.94;1473636;89;21503;-79
2024/01/16 05:24:37;;;;;;;17.65;7.67;;;;;;;-2.86;96.71;99263.75;1467549;89;22265;-80
2024/01/16 05:27:04;;;;;;;11.80;7.92;;;;;;;-2.86;96.50;99261.16;1464774;89;21569;-79
2024/01/16 05:29:31;;;;;;;17.27;8.95;;;;;;;-2.87;96.30;99259.50;1465816;88;21547;-78
2024/01/16 05:31:58;;;;;;;14.60;8.65;;;;;;;-2.86;96.06;99260.33;1448190;89;21474;-78
2024/01/16 05:34:24;;;;;;;15.78;9.00;;;;;;;-2.88;96.42;99256.52;1470702;89;21517;-78
2024/01/16 05:36:50;;;;;;;14.18;9.38;;;;;;;-2.89;96.38;99263.94;1468360;89;21384;-79
2024/01/16 05:39:17;;;;;;;20.77;10.53;;;;;;;-2.90;97.53;99264.04;1445813;89;21533;-78
2024/01/16 05:41:43;;;;;;;20.70;10.85;;;;;;;-2.92;97.59;99265.41;1469541;89;21369;-78
2024/01/16 05:44:09;;;;;;;21.77;11.38;;;;;;;-2.94;99.85;99267.25;1463918;89;21362;-78
2024/01/16 05:46:35;;;;;;;25.05;12.50;;;;;;;-2.95;99.31;99275.95;1471284;89;21540;-78
2024/01/16 05:49:02;;;;;;;18.40;10.03;;;;;;;-2.97;100.00;99277.32;1465747;89;21406;-78
2024/01/16 05:51:29;;;;;;;17.45;9.48;;;;;;;-2.99;100.00;99276.59;1464657;89;22463;-79
2024/01/16 05:53:55;;;;;;;17.12;8.25;;;;;;;-2.99;100.00;99277.06;1463134;89;21377;-78
2024/01/16 05:56:22;;;;;;;15.45;8.05;;;;;;;-3.00;100.00;99287.03;1475489;89;21369;-80
2024/01/16 05:58:48;;;;;;;17.40;7.85;;;;;;;-3.00;100.00;99287.86;1463041;89;21310;-78
2024/01/16 06:01:14;;;;;;;12.58;7.05;;;;;;;-3.00;100.00;99293.50;1461966;89;21644;-78
2024/01/16 06:03:41;;;;;;;12.30;8.25;;;;;;;-3.01;100.00;99291.84;1467139;89;21302;-81
2024/01/16 06:06:08;;;;;;;13.45;7.90;;;;;;;-2.98;100.00;99298.14;1466335;88;21525;-78
2024/01/16 06:08:34;;;;;;;13.25;7.67;;;;;;;-2.96;100.00;99297.13;1453548;89;21391;-79
2024/01/16 06:11:01;;;;;;;11.93;6.97;;;;;;;-2.93;100.00;99297.41;1466043;89;21428;-79
2024/01/16 06:13:27;;;;;;;13.58;8.98;;;;;;;-2.91;100.00;99298.60;1466655;89;21436;-79
2024/01/16 06:15:54;;;;;;;18.25;9.38;;;;;;;-2.90;100.00;99303.70;1462345;88;21627;-79
2024/01/16 06:18:20;;;;;;;24.05;10.05;;;;;;;-2.89;100.00;99313.13;1455375;88;21472;-78
2024/01/16 06:20:46;;;;;;;14.68;8.83;;;;;;;-2.88;100.00;99314.78;1465944;88;21529;-78
2024/01/16 06:23:12;;;;;;;16.57;8.68;;;;;;;-2.87;100.00;99316.47;1481725;88;21332;-79
2024/01/16 06:25:39;;;;;;;22.62;9.70;;;;;;;-2.86;100.00;99323.30;1477863;88;21620;-79
2024/01/16 06:28:07;;;;;;;15.28;8.23;;;;;;;-2.83;100.00;99330.89;1470369;88;21347;-78
2024/01/16 06:30:34;;;;;;;16.42;7.97;;;;;;;-2.78;100.00;99344.41;1480129;88;21458;-80
2024/01/16 06:33:00;;;;;;;28.98;9.55;;;;;;;-2.73;100.00;99342.86;1476008;88;21383;-78
2024/01/16 06:35:26;;;;;;;23.67;9.58;;;;;;;-2.68;100.00;99346.45;1461209;88;21479;-79
2024/01/16 06:37:52;;;;;;;16.55;9.25;;;;;;;-2.64;100.00;99353.14;1473169;88;21561;-78
2024/01/16 06:40:18;;;;;;;13.43;7.42;;;;;;;-2.62;100.00;99349.98;1476307;88;22441;-77
2024/01/16 06:42:45;;;;;;;17.80;8.15;;;;;;;-2.60;100.00;99352.85;1467267;88;21354;-77
2024/01/16 06:45:13;;;;;;;16.07;8.88;;;;;;;-2.57;100.00;99360.91;1467642;88;21430;-79
2024/01/16 06:47:40;;;;;;;13.18;8.63;;;;;;;-2.55;100.00;99365.08;1474928;88;22534;-78
2024/01/16 06:50:08;;;;;;;12.73;7.55;;;;;;;-2.53;100.00;99371.48;1465792;88;21376;-79
2024/01/16 06:52:34;;;;;;;16.73;9.25;;;;;;;-2.51;100.00;99378.68;1477416;88;21532;-79
2024/01/16 06:55:00;;;;;;;14.05;8.03;;;;;;;-2.47;100.00;99383.21;1477926;88;22325;-78
2024/01/16 06:57:27;;;;;;;16.25;8.18;;;;;;;-2.43;100.00;99386.01;1474523;88;21524;-79
2024/01/16 06:59:53;;;;;;;11.28;6.60;;;;;;;-2.40;100.00;99387.95;1451800;88;22677;-78
2024/01/16 07:02:20;;;;;;;12.40;7.55;;;;;;;-2.32;100.00;99393.52;1475106;88;21428;-78
2024/01/16 07:04:46;;;;;;;10.93;6.95;;;;;;;-2.26;100.00;99398.80;1473609;88;21501;-78
2024/01/16 07:07:12;;;;;;;9.93;7.10;;;;;;;-2.20;100.00;99397.59;1461770;88;21318;-79
2024/01/16 07:09:38;;;;;;;16.62;9.58;;;;;;;-2.12;100.00;99399.27;1465912;88;21576;-78
2024/01/16 07:12:05;;;;;;;14.83;8.28;;;;;;;-2.02;100.00;99408.14;1471613;88;21377;-80
2024/01/16 07:14:33;;;;;;;11.60;6.72;;;;;;;-1.91;100.00;99407.03;1466941;88;21525;-80
2024/01/16 07:16:59;;;;;;;13.85;7.45;;;;;;;-1.83;100.00;99412.59;1453767;89;21392;-80
2024/01/16 07:19:25;;;;;;;12.13;7.62;;;;;;;-1.73;100.00;99415.91;1445672;89;21295;-79
2024/01/16 07:21:52;;;;;;;12.50;7.90;;;;;;;-1.63;100.00;99415.73;1456311;89;21612;-80
2024/01/16 07:24:18;;;;;;;25.75;13.55;;;;;;;-1.54;100.00;99415.15;1450748;89;21355;-80
2024/01/16 07:26:44;;;;;;;17.67;10.70;;;;;;;-1.46;100.00;99420.70;1455116;89;21636;-80
2024/01/16 07:29:11;;;;;;;20.52;10.78;;;;;;;-1.37;100.00;99416.69;1449769;89;21406;-80
2024/01/16 07:31:37;;;;;;;19.25;10.93;;;;;;;-1.29;100.00;99414.92;1443675;89;21407;-80
2024/01/16 07:34:03;;;;;;;15.57;8.93;;;;;;;-1.21;100.00;99423.03;1453401;89;21509;-79
2024/01/16 07:36:30;;;;;;;17.27;9.48;;;;;;;-1.12;100.00;99425.06;1436238;89;22563;-80
2024/01/16 07:38:57;;;;;;;21.82;11.57;;;;;;;-1.03;100.00;99430.97;1456681;89;22197;-80
2024/01/16 07:41:23;;;;;;;19.17;11.87;;;;;;;-0.94;100.00;99431.66;1449451;89;21391;-80
2024/01/16 07:43:50;;;;;;;18.97;9.60;;;;;;;-0.85;100.00;99427.64;1450354;89;22665;-80
2024/01/16 07:46:16;;;;;;;19.37;11.37;;;;;;;-0.76;100.00;99422.31;1463361;89;21848;-80
2024/01/16 07:48:43;;;;;;;13.77;8.97;;;;;;;-0.68;97.66;99434.34;1457429;89;21794;-80
2024/01/16 07:51:09;;;;;;;13.10;9.13;;;;;;;-0.60;97.12;99430.77;1454004;89;21631;-80
2024/01/16 07:53:35;;;;;;;12.17;7.20;;;;;;;-0.52;94.48;99438.05;1433511;89;22441;-80
2024/01/16 07:56:02;;;;;;;9.73;5.57;;;;;;;-0.48;92.37;99445.55;1451369;89;22504;-81
2024/01/16 07:58:28;;;;;;;11.87;6.83;;;;;;;-0.38;92.50;99440.56;1452926;89;21639;-80
2024/01/16 08:00:55;;;;;;;9.63;5.73;;;;;;;-0.29;91.68;99451.67;1451051;89;22775;-81
2024/01/16 08:03:21;;;;;;;9.23;5.60;;;;;;;-0.22;90.39;99446.06;1452262;89;21675;-80
2024/01/16 08:05:47;;;;;;;9.13;5.77;;;;;;;-0.15;88.76;99455.92;1455289;89;21431;-80
2024/01/16 08:08:13;;;;;;;10.17;5.90;;;;;;;-0.06;88.32;99457.93;1443674;89;22611;-80
2024/01/16 08:10:43;;;;;;;9.10;4.97;;;;;;;0.02;88.46;99456.56;1458052;89;22538;-80
2024/01/16 08:13:09;;;;;;;11.43;7.00;;;;;;;0.11;87.21;99467.64;1453801;89;22390;-80
2024/01/16 08:15:36;;;;;;;12.40;6.70;;;;;;;0.19;86.45;99466.18;1435752;88;21897;-80
2024/01/16 08:18:03;;;;;;;10.77;6.03;;;;;;;0.27;85.47;99476.08;1465298;88;21575;-80
2024/01/16 08:20:30;;;;;;;11.53;6.30;;;;;;;0.30;83.78;99475.86;1471335;88;21568;-80
2024/01/16 08:22:56;;;;;;;13.10;6.87;;;;;;;0.36;81.69;99479.34;1454638;88;21694;-79
2024/01/16 08:25:23;;;;;;;14.93;4.90;;;;;;;0.41;82.05;99477.73;1463958;88;21574;-80
2024/01/16 08:27:49;;;;;;;16.43;5.90;;;;;;;0.45;81.40;99483.08;1480111;88;21527;-79
2024/01/16 08:30:16;;;;;;;10.27;6.67;;;;;;;0.50;80.72;99484.90;1478591;88;21802;-80
2024/01/16 08:32:42;;;;;;;11.20;7.67;;;;;;;0.57;80.73;99482.22;1478297;88;21675;-80
2024/01/16 08:35:09;;;;;;;16.23;7.93;;;;;;;0.64;80.15;99480.03;1479991;88;21829;-80
2024/01/16 08:37:35;;;;;;;20.33;6.03;;;;;;;0.73;80.43;99493.70;1457113;88;21523;-80
2024/01/16 08:40:04;;;;;;;9.53;5.07;;;;;;;0.76;79.56;99488.76;1474802;88;22452;-80
2024/01/16 08:42:30;;;;;;;13.13;5.67;;;;;;;0.80;79.15;99497.53;1469005;88;21688;-79
2024/01/16 08:44:57;;;;;;;11.00;6.20;;;;;;;0.86;78.87;99485.84;1475405;88;22532;-79
2024/01/16 08:47:23;;;;;;;9.90;5.83;;;;;;;0.88;78.12;99508.72;1475931;88;21511;-80
2024/01/16 08:49:49;;;;;;;13.43;7.13;;;;;;;0.87;77.93;99507.89;1468049;88;22515;-78
2024/01/16 08:52:16;;;;;;;18.23;6.57;;;;;;;0.94;78.29;99513.97;1476458;88;21675;-79
2024/01/16 08:54:42;;;;;;;9.73;6.40;;;;;;;0.94;77.40;99521.79;1472280;88;21790;-80
2024/01/16 08:57:10;;;;;;;8.43;5.57;;;;;;;1.00;77.45;99531.77;1470338;88;21836;-80
2024/01/16 08:59:36;;;;;;;8.87;5.17;;;;;;;1.07;76.91;99540.84;1484436;88;21633;-80
2024/01/16 09:02:03;;;;;;;8.50;4.90;;;;;;;1.18;76.84;99546.56;1449071;88;21827;-80
2024/01/16 09:04:29;;;;;;;7.37;5.30;;;;;;;1.21;75.92;99540.69;1481008;88;21688;-79
2024/01/16 09:06:56;;;;;;;9.93;5.30;;;;;;;1.37;75.33;99556.52;1456844;88;21708;-80
2024/01/16 09:09:22;;;;;;;8.07;5.63;;;;;;;1.37;75.33;99556.52;1471442;88;21725;-79
2024/01/16 09:11:49;;;;;;;13.90;7.27;;;;;;;1.45;75.31;99551.59;1488069;88;22670;-80
2024/01/16 09:14:15;;;;;;;10.93;6.50;;;;;;;1.55;74.90;99549.97;1483955;88;21686;-80
2024/01/16 09:16:42;;;;;;;17.40;7.57;;;;;;;1.76;73.79;99548.41;1468161;88;21926;-80
2024/01/16 09:19:09;;;;;;;11.97;5.30;;;;;;;1.76;73.79;99548.41;1474032;88;21826;-80
2024/01/16 09:21:35;;;;;;;9.00;5.10;;;;;;;1.89;72.10;99547.50;1470195;89;21825;-79
2024/01/16 09:24:02;;;;;;;8.03;4.70;;;;;;;1.96;71.64;99532.59;1471597;89;22936;-79
2024/01/16 09:26:28;;;;;;;6.20;3.87;;;;;;;1.96;71.64;99532.59;1470180;89;22071;-79
2024/01/16 09:28:55;;;;;;;6.07;3.90;;;;;;;2.01;70.86;99547.88;1470430;89;22130;-79
2024/01/16 09:31:21;;;;;;;9.90;4.67;;;;;;;2.08;71.86;99545.19;1463355;89;21892;-79
2024/01/16 09:33:47;;;;;;;7.30;4.43;;;;;;;2.12;71.44;99545.78;1468881;89;22198;-80
2024/01/16 09:36:13;;;;;;;7.20;4.07;;;;;;;2.24;68.96;99532.66;1469245;89;22937;-79
2024/01/16 09:38:40;;;;;;;11.60;6.40;;;;;;;2.24;68.96;99532.66;1466780;89;23062;-80
2024/01/16 09:41:07;;;;;;;8.03;4.67;;;;;;;2.37;69.11;99538.24;1467750;89;22564;-78
2024/01/16 09:43:34;;;;;;;13.77;6.30;;;;;;;2.48;70.21;99550.01;1467782;89;22072;-79
2024/01/16 09:46:05;;;;;;;7.67;4.50;;;;;;;2.60;69.28;99544.31;1473525;89;22326;-80
2024/01/16 09:48:32;;;;;;;7.70;5.17;;;;;;;2.85;69.82;99558.45;1459219;89;21465;-77
2024/01/16 09:50:58;;;;;;;8.73;5.20;;;;;;;3.60;67.68;99545.11;1472573;89;21443;-76
2024/01/16 09:53:26;;;;;;;9.90;4.33;;;;;;;4.39;64.09;99546.83;1467664;88;21428;-77
2024/01/16 09:55:58;;;;;;;7.57;4.40;;;;;;;5.12;62.02;99559.36;1461325;89;22400;-77
2024/01/16 09:58:25;;;;;;;7.93;4.90;;;;;;;5.78;62.11;99556.60;1465680;88;21725;-78
2024/01/16 10:00:52;;;;;;;7.90;4.77;;;;;;;6.30;61.21;99565.87;1466942;89;21428;-79
2024/01/16 10:03:20;;;;;;;6.67;4.17;;;;;;;6.68;57.62;99561.48;1471085;89;21509;-79
2024/01/16 10:05:49;;;;;;;5.53;3.37;;;;;;;6.99;56.29;99566.46;1473246;88;21324;-79
2024/01/16 10:08:15;;;;;;;5.50;3.73;;;;;;;7.05;53.50;99563.27;1475540;89;21443;-78
2024/01/16 10:10:41;;;;;;;4.13;2.80;;;;;;;7.21;53.23;99566.57;1467892;89;21346;-77
2024/01/16 10:13:08;;;;;;;8.70;4.40;;;;;;;7.38;55.40;99562.32;1468732;89;21444;-77
2024/01/16 10:15:35;;;;;;;5.67;3.73;;;;;;;7.38;54.64;99565.78;1465532;88;21517;-77
2024/01/16 10:18:03;;;;;;;5.80;3.70;;;;;;;7.58;53.64;99561.21;1474392;88;22396;-77
2024/01/16 10:20:35;;;;;;;7.57;3.53;;;;;;;7.48;51.95;99559.61;1471189;88;21609;-77
2024/01/16 10:23:03;;;;;;;6.20;2.70;;;;;;;7.16;51.38;99554.33;1472251;88;22029;-76
2024/01/16 10:25:29;;;;;;;5.97;3.47;;;;;;;7.24;52.33;99565.78;1465850;88;21428;-77
2024/01/16 10:28:07;;;;;;;47.23;7.10;;;;;;;7.31;52.00;99566.50;1469298;88;21561;-76
2024/01/16 10:30:33;;;;;;;5.90;3.70;;;;;;;7.41;52.02;99563.34;1468703;88;21353;-78
2024/01/16 10:33:16;;;;;;;4.70;2.80;;;;;;;7.56;52.23;99567.11;1448324;88;21406;-77
2024/01/16 10:35:42;;;;;;;5.70;3.23;;;;;;;7.51;50.81;99574.65;1465314;88;21362;-78
2024/01/16 10:38:09;;;;;;;6.60;3.83;;;;;;;7.20;49.67;99574.96;1468639;88;22889;-78
2024/01/16 10:40:35;;;;;;;5.00;3.23;;;;;;;7.09;50.98;99581.73;1449050;88;21413;-78
2024/01/16 10:43:05;;;;;;;6.73;3.83;;;;;;;6.87;50.96;99584.72;1466396;88;21347;-79
2024/01/16 10:45:32;;;;;;;7.17;3.98;;;;;;;6.71;50.23;99591.92;1393169;88;21244;-77
2024/01/16 10:48:07;;;;;;;9.13;5.77;;;;;;;6.80;51.11;99597.63;1393081;88;21318;-76
2024/01/16 10:50:35;;;;;;;9.40;5.97;;;;;;;6.72;50.67;99588.31;1397446;88;22309;-75
2024/01/16 10:53:05;;;;;;;13.17;5.53;;;;;;;6.58;50.21;99594.84;1391817;88;21274;-77
2024/01/16 10:55:33;;;;;;;10.90;4.17;;;;;;;6.62;51.25;99588.35;1553017;88;21444;-77
2024/01/16 10:58:02;;;;;;;6.40;4.20;;;;;;;6.70;51.64;99592.42;1543469;88;21318;-76
2024/01/16 11:00:33;;;;;;;7.47;4.33;;;;;;;6.63;51.54;99590.48;1396373;88;21340;-77
2024/01/16 11:03:06;;;;;;;6.80;4.45;;;;;;;6.62;49.56;99583.09;1491110;88;21399;-78
2024/01/16 11:05:35;;;;;;;12.47;5.60;;;;;;;6.60;50.83;99581.58;1471793;88;21420;-77
2024/01/16 11:08:03;;;;;;;6.63;4.50;;;;;;;6.73;51.01;99580.30;1470339;88;21383;-77
2024/01/16 11:10:32;;;;;;;7.00;3.10;;;;;;;6.78;50.11;99589.87;1468797;88;21398;-77
2024/01/16 11:13:02;;;;;;;6.83;3.67;;;;;;;6.68;49.21;99589.09;1391232;88;21259;-78
2024/01/16 11:15:29;;;;;;;6.45;3.90;;;;;;;6.63;49.25;99588.69;1389995;88;21476;-78
2024/01/16 11:17:57;;;;;;;3.67;2.83;;;;;;;6.64;50.43;99591.64;1388631;88;21511;-77
2024/01/16 11:20:25;;;;;;;8.57;4.23;;;;;;;6.54;47.73;99600.06;1379377;89;21332;-78
2024/01/16 11:22:54;;;;;;;4.60;2.93;;;;;;;6.46;48.07;99587.61;1386059;89;21626;-78
2024/01/16 11:25:21;;;;;;;9.17;4.10;;;;;;;6.37;48.76;99602.10;1479547;89;22131;-78